Terminal Aerodrome Forecast
Issued by NWS Riverton, WY

Home | Current Version | Previous Version | Text Only | Print | Product List | Glossary On
Versions: 1 2 3 4 5 6 7 8 9 10 11 12 13 14
000
FTUS45 KRIW 280000 AAA
TAFRIW
TAF AMD
KRIW 280000Z 2800/2824 33011KT P6SM VCTS SCT080CB BKN110
      TEMPO 2800/2801 30020G35KT 5SM -TSRA BKN080CB
     FM280200 29009KT P6SM SCT120
     FM281800 04008KT P6SM SCT120=

USA.gov is the U.S. government's official web portal to all federal, state and local government web resources and services.